createdAt,value
2023-08-09T00:00:24.479Z,2.40
2023-08-09T00:02:52.447Z,2.13
2023-08-09T00:05:20.429Z,2.70
2023-08-09T00:07:48.274Z,2.60
2023-08-09T00:10:16.258Z,2.60
2023-08-09T00:12:45.514Z,2.92
2023-08-09T00:15:13.498Z,2.58
2023-08-09T00:17:41.633Z,2.60
2023-08-09T00:20:10.478Z,2.88
2023-08-09T00:22:38.362Z,2.63
2023-08-09T00:25:07.548Z,2.72
2023-08-09T00:27:35.525Z,2.70
2023-08-09T00:30:05.564Z,2.38
2023-08-09T00:32:34.051Z,2.85
2023-08-09T00:35:02.023Z,2.60
2023-08-09T00:37:29.847Z,2.38
2023-08-09T00:39:57.927Z,2.50
2023-08-09T00:42:27.744Z,2.60
2023-08-09T00:44:55.639Z,2.38
2023-08-09T00:47:25.019Z,2.42
2023-08-09T00:49:54.077Z,2.30
2023-08-09T00:52:22.147Z,2.38
2023-08-09T00:54:50.310Z,2.40
2023-08-09T00:57:18.282Z,2.45
2023-08-09T00:59:46.366Z,2.20
2023-08-09T01:02:14.322Z,2.20
2023-08-09T01:04:43.876Z,2.22
2023-08-09T01:07:17.619Z,2.30
2023-08-09T01:09:51.909Z,1.95
2023-08-09T01:12:26.803Z,2.15
2023-08-09T01:17:29.154Z,1.98
2023-08-09T01:20:00.416Z,2.40
2023-08-09T01:22:32.869Z,2.10
2023-08-09T01:25:04.671Z,2.20
2023-08-09T01:27:33.053Z,2.22
2023-08-09T01:30:02.229Z,2.30
2023-08-09T01:32:31.224Z,2.05
2023-08-09T01:35:01.524Z,1.90
2023-08-09T01:37:33.660Z,1.90
2023-08-09T01:40:09.385Z,2.00
2023-08-09T01:42:38.371Z,2.35
2023-08-09T01:45:09.103Z,2.40
2023-08-09T01:47:37.623Z,2.00
2023-08-09T01:50:06.550Z,2.40
2023-08-09T01:52:34.644Z,2.10
2023-08-09T01:55:04.134Z,2.42
2023-08-09T01:57:32.016Z,2.47
2023-08-09T02:00:00.250Z,2.08
2023-08-09T02:02:28.303Z,2.28
2023-08-09T02:04:56.951Z,2.17
2023-08-09T02:07:24.776Z,2.22
2023-08-09T02:09:52.656Z,2.10
2023-08-09T02:12:21.891Z,2.33
2023-08-09T02:14:50.448Z,2.40
2023-08-09T02:17:18.581Z,2.35
2023-08-09T02:19:46.462Z,2.40
2023-08-09T02:22:14.374Z,2.45
2023-08-09T02:24:42.249Z,2.22
2023-08-09T02:27:10.843Z,2.50
2023-08-09T02:29:40.182Z,2.50
2023-08-09T02:32:08.739Z,2.28
2023-08-09T02:34:36.636Z,2.80
2023-08-09T02:37:05.182Z,2.78
2023-08-09T02:39:34.117Z,2.97
2023-08-09T02:42:01.986Z,3.40
2023-08-09T02:44:33.745Z,2.70
2023-08-09T02:47:04.486Z,2.30
2023-08-09T02:49:33.931Z,2.30
2023-08-09T02:52:01.848Z,2.10
2023-08-09T02:54:29.955Z,2.10
2023-08-09T02:56:57.816Z,2.22
2023-08-09T02:59:25.629Z,2.40
2023-08-09T03:01:53.870Z,2.15
2023-08-09T03:04:23.312Z,2.20
2023-08-09T03:06:51.239Z,2.80
2023-08-09T03:09:19.510Z,2.50
2023-08-09T03:11:47.393Z,2.65
2023-08-09T03:14:15.636Z,3.88
2023-08-09T03:16:43.911Z,3.15
2023-08-09T03:19:12.681Z,3.40
2023-08-09T03:21:42.896Z,4.95
2023-08-09T03:24:11.260Z,3.17
2023-08-09T03:26:41.338Z,3.03
2023-08-09T03:29:09.172Z,3.30
2023-08-09T03:31:37.864Z,2.90
2023-08-09T03:34:11.497Z,2.83
2023-08-09T03:36:39.391Z,2.70
2023-08-09T03:39:08.755Z,2.72
2023-08-09T03:41:36.729Z,3.83
2023-08-09T03:44:04.894Z,3.20
2023-08-09T03:46:33.550Z,3.90
2023-08-09T03:49:02.436Z,3.70
2023-08-09T03:51:31.216Z,3.72
2023-08-09T03:53:59.300Z,3.65
2023-08-09T03:56:28.552Z,3.92
2023-08-09T03:58:56.440Z,3.75
2023-08-09T04:01:24.400Z,3.80
2023-08-09T04:03:52.370Z,4.10
2023-08-09T04:06:20.997Z,3.90
2023-08-09T04:08:48.945Z,3.90
2023-08-09T04:11:16.780Z,3.75
2023-08-09T04:13:46.133Z,4.00
2023-08-09T04:16:14.113Z,3.58
2023-08-09T04:18:42.614Z,3.63
2023-08-09T04:21:10.450Z,3.42
2023-08-09T04:23:39.724Z,4.50
2023-08-09T04:26:07.622Z,3.55
2023-08-09T04:28:35.485Z,3.40
2023-08-09T04:31:05.376Z,3.60
2023-08-09T04:33:33.654Z,3.58
2023-08-09T04:36:01.590Z,3.67
2023-08-09T04:38:29.963Z,3.40
2023-08-09T04:40:58.455Z,3.40
2023-08-09T04:43:26.304Z,3.65
2023-08-09T04:45:54.807Z,3.50
2023-08-09T04:48:24.849Z,6.45
2023-08-09T04:50:55.030Z,4.50
2023-08-09T04:53:23.020Z,3.90
2023-08-09T04:55:51.222Z,4.18
2023-08-09T04:58:19.402Z,3.97
2023-08-09T05:00:47.228Z,4.45
2023-08-09T05:03:15.148Z,3.88
2023-08-09T05:05:44.616Z,4.13
2023-08-09T05:08:12.461Z,4.30
2023-08-09T05:10:40.791Z,4.30
2023-08-09T05:13:08.759Z,4.40
2023-08-09T05:15:36.643Z,3.63
2023-08-09T05:18:05.809Z,3.85
2023-08-09T05:20:33.741Z,4.68
2023-08-09T05:23:02.917Z,3.70
2023-08-09T05:25:31.035Z,3.35
2023-08-09T05:27:58.925Z,4.45
2023-08-09T05:30:26.865Z,4.28
2023-08-09T05:32:54.837Z,4.20
2023-08-09T05:35:22.863Z,4.28
2023-08-09T05:37:50.744Z,3.83
2023-08-09T05:40:20.178Z,3.42
2023-08-09T05:42:48.016Z,3.45
2023-08-09T05:45:15.956Z,3.65
2023-08-09T05:47:43.867Z,3.00
2023-08-09T05:50:11.989Z,3.45
2023-08-09T05:52:39.875Z,3.47
2023-08-09T05:55:09.184Z,2.80
2023-08-09T05:57:38.376Z,3.75
2023-08-09T06:00:12.403Z,3.17
2023-08-09T06:02:40.378Z,2.67
2023-08-09T06:05:09.337Z,2.60
2023-08-09T06:07:37.278Z,2.40
2023-08-09T06:10:05.638Z,2.40
2023-08-09T06:12:33.567Z,2.20
2023-08-09T06:15:02.792Z,2.35
2023-08-09T06:17:30.722Z,2.17
2023-08-09T06:19:58.865Z,2.10
2023-08-09T06:22:26.857Z,2.40
2023-08-09T06:24:54.881Z,2.10
2023-08-09T06:27:22.721Z,2.20
2023-08-09T06:29:50.696Z,3.22
2023-08-09T06:32:20.993Z,1.80
2023-08-09T06:34:50.986Z,2.40
2023-08-09T06:37:18.817Z,2.80
2023-08-09T06:39:46.670Z,1.77
2023-08-09T06:42:14.929Z,1.80
2023-08-09T06:44:45.674Z,1.98
2023-08-09T06:47:13.641Z,1.65
2023-08-09T06:49:42.845Z,1.60
2023-08-09T06:52:10.884Z,1.70
2023-08-09T06:54:38.728Z,1.55
2023-08-09T06:57:06.901Z,1.52
2023-08-09T06:59:35.191Z,2.08
2023-08-09T07:02:03.369Z,2.00
2023-08-09T07:04:31.367Z,1.80
2023-08-09T07:07:00.837Z,2.10
2023-08-09T07:09:28.880Z,1.70
2023-08-09T07:11:56.721Z,1.45
2023-08-09T07:14:24.537Z,1.50
2023-08-09T07:16:52.348Z,1.50
2023-08-09T07:19:20.199Z,1.50
2023-08-09T07:21:48.511Z,1.52
2023-08-09T07:24:17.815Z,1.35
2023-08-09T07:26:45.760Z,1.40
2023-08-09T07:29:13.612Z,1.35
2023-08-09T07:31:41.700Z,1.50
2023-08-09T07:34:09.603Z,1.23
2023-08-09T07:36:37.496Z,1.38
2023-08-09T07:39:05.631Z,1.13
2023-08-09T07:41:34.919Z,1.05
2023-08-09T07:44:02.947Z,1.20
2023-08-09T07:46:32.416Z,1.35
2023-08-09T07:49:01.877Z,1.40
2023-08-09T07:51:29.756Z,1.67
2023-08-09T07:53:57.599Z,1.25
2023-08-09T07:56:26.098Z,1.30
2023-08-09T07:58:55.299Z,1.17
2023-08-09T08:01:23.714Z,1.27
2023-08-09T08:03:51.633Z,1.10
2023-08-09T08:06:19.606Z,1.30
2023-08-09T08:08:47.594Z,1.10
2023-08-09T08:11:15.504Z,1.40
2023-08-09T08:13:43.505Z,1.27
2023-08-09T08:16:12.915Z,1.10
2023-08-09T08:18:40.893Z,1.10
2023-08-09T08:21:09.995Z,1.23
2023-08-09T08:23:38.041Z,1.00
2023-08-09T08:26:06.396Z,1.10
2023-08-09T08:28:34.217Z,2.33
2023-08-09T08:31:06.095Z,1.10
2023-08-09T08:33:35.333Z,1.00
2023-08-09T08:36:20.796Z,1.05
2023-08-09T08:38:51.997Z,1.20
2023-08-09T08:41:20.004Z,2.50
2023-08-09T08:43:49.047Z,1.25
2023-08-09T08:46:18.099Z,1.08
2023-08-09T08:48:50.429Z,1.10
2023-08-09T08:51:19.638Z,0.80
2023-08-09T08:53:48.110Z,1.40
2023-08-09T08:56:16.623Z,1.90
2023-08-09T08:58:44.845Z,0.93
2023-08-09T09:01:14.130Z,1.02
2023-08-09T09:03:42.194Z,1.08
2023-08-09T09:06:11.992Z,0.90
2023-08-09T09:08:43.001Z,0.98
2023-08-09T09:11:16.814Z,1.17
2023-08-09T09:13:44.754Z,1.08
2023-08-09T09:16:13.397Z,1.10
2023-08-09T09:18:46.181Z,1.20
2023-08-09T09:21:16.077Z,1.40
2023-08-09T09:23:44.123Z,1.40
2023-08-09T09:26:13.523Z,1.17
2023-08-09T09:28:42.525Z,1.23
2023-08-09T09:31:11.642Z,1.35
2023-08-09T09:33:40.997Z,1.20
2023-08-09T09:36:13.068Z,1.20
2023-08-09T09:38:42.848Z,2.90
2023-08-09T09:41:11.292Z,1.52
2023-08-09T09:43:42.713Z,1.30
2023-08-09T09:46:34.166Z,1.30
2023-08-09T09:49:06.436Z,1.33
2023-08-09T09:51:36.705Z,1.40
2023-08-09T09:54:07.825Z,1.30
2023-08-09T09:56:36.893Z,1.20
2023-08-09T09:59:05.533Z,1.20
2023-08-09T10:01:36.522Z,1.33
2023-08-09T10:04:08.803Z,1.25
2023-08-09T10:06:43.456Z,1.05
2023-08-09T10:09:14.423Z,1.27
2023-08-09T10:11:45.456Z,1.10
2023-08-09T10:14:16.334Z,1.20
2023-08-09T10:16:46.550Z,0.95
2023-08-09T10:19:19.352Z,1.00
2023-08-09T10:21:47.618Z,1.00
2023-08-09T10:24:19.731Z,1.00
2023-08-09T10:26:50.639Z,1.00
2023-08-09T10:29:22.502Z,0.98
2023-08-09T10:31:54.319Z,0.90
2023-08-09T10:34:24.150Z,1.00
2023-08-09T10:36:55.593Z,1.13
2023-08-09T10:39:25.610Z,1.50
2023-08-09T10:42:03.346Z,1.10
2023-08-09T10:44:42.819Z,1.02
2023-08-09T10:47:13.888Z,1.13
2023-08-09T10:50:01.395Z,1.30
2023-08-09T10:52:37.354Z,1.20
2023-08-09T10:55:40.007Z,1.00
2023-08-09T10:58:16.077Z,2.38
2023-08-09T11:00:44.671Z,0.90
2023-08-09T11:03:13.584Z,1.08
2023-08-09T11:05:41.670Z,1.30
2023-08-09T11:08:17.473Z,1.35
2023-08-09T11:10:47.520Z,1.70
2023-08-09T11:13:17.185Z,1.30
2023-08-09T11:15:46.519Z,1.33
2023-08-09T11:18:14.574Z,1.42
2023-08-09T11:20:42.596Z,1.77
2023-08-09T11:23:12.750Z,1.48
2023-08-09T11:25:41.302Z,1.55
2023-08-09T11:28:15.783Z,1.65
2023-08-09T11:30:44.229Z,1.58
2023-08-09T11:33:12.999Z,1.60
2023-08-09T11:35:45.150Z,1.58
2023-08-09T11:38:15.165Z,1.55
2023-08-09T11:40:44.816Z,1.52
2023-08-09T11:43:16.504Z,1.40
2023-08-09T11:45:51.233Z,1.75
2023-08-09T11:48:31.390Z,1.80
2023-08-09T11:51:03.537Z,1.60
2023-08-09T11:53:31.570Z,1.70
2023-08-09T11:56:02.884Z,1.70
2023-08-09T11:58:35.030Z,1.90
2023-08-09T12:01:14.069Z,1.50
2023-08-09T12:03:42.723Z,2.10
2023-08-09T12:06:11.345Z,1.60
2023-08-09T12:08:39.885Z,1.70
2023-08-09T12:11:07.975Z,1.73
2023-08-09T12:13:37.341Z,1.70
2023-08-09T12:16:08.095Z,1.65
2023-08-09T12:18:37.578Z,1.70
2023-08-09T12:21:08.106Z,1.80
2023-08-09T12:23:39.490Z,1.90
2023-08-09T12:26:08.892Z,1.85
2023-08-09T12:28:40.209Z,1.83
2023-08-09T12:31:09.765Z,1.90
2023-08-09T12:33:37.650Z,2.10
2023-08-09T12:36:05.868Z,1.88
2023-08-09T12:38:33.778Z,2.03
2023-08-09T12:41:01.712Z,2.10
2023-08-09T12:43:29.592Z,1.80
2023-08-09T12:46:00.734Z,2.10
2023-08-09T12:48:28.716Z,2.30
2023-08-09T12:50:56.616Z,2.08
2023-08-09T12:53:24.534Z,2.00
2023-08-09T12:55:52.493Z,2.40
2023-08-09T12:58:20.518Z,2.28
2023-08-09T13:00:48.398Z,2.42
2023-08-09T13:03:17.870Z,2.50
2023-08-09T13:05:45.857Z,2.78
2023-08-09T13:08:14.053Z,2.42
2023-08-09T13:10:44.739Z,2.90
2023-08-09T13:13:12.570Z,2.55
2023-08-09T13:15:40.589Z,2.28
2023-08-09T13:18:08.578Z,2.40
2023-08-09T13:20:37.965Z,2.60
2023-08-09T13:23:08.523Z,2.80
2023-08-09T13:25:36.488Z,2.38
2023-08-09T13:28:05.427Z,2.10
2023-08-09T13:30:34.010Z,2.03
2023-08-09T13:33:01.919Z,2.00
2023-08-09T13:35:30.495Z,2.15
2023-08-09T13:37:59.724Z,1.90
2023-08-09T13:40:27.592Z,2.03
2023-08-09T13:42:54.648Z,1.88
2023-08-09T13:45:22.506Z,2.00
2023-08-09T13:47:50.453Z,1.95
2023-08-09T13:50:18.594Z,1.98
2023-08-09T13:52:46.512Z,1.80
2023-08-09T13:55:15.766Z,1.80
2023-08-09T13:57:43.614Z,1.77
2023-08-09T14:00:15.527Z,2.00
2023-08-09T14:02:43.651Z,1.90
2023-08-09T14:05:12.361Z,1.85
2023-08-09T14:07:40.378Z,1.80
2023-08-09T14:10:09.301Z,1.60
2023-08-09T14:12:39.577Z,1.92
2023-08-09T14:15:09.318Z,1.70
2023-08-09T14:17:37.247Z,1.55
2023-08-09T14:20:06.953Z,1.60
2023-08-09T14:22:35.090Z,1.77
2023-08-09T14:25:03.087Z,1.55
2023-08-09T14:27:31.296Z,1.70
2023-08-09T14:30:00.530Z,1.67
2023-08-09T14:32:28.864Z,1.60
2023-08-09T14:34:56.727Z,1.48
2023-08-09T14:37:24.670Z,1.58
2023-08-09T14:39:52.750Z,1.60
2023-08-09T14:42:20.641Z,1.50
2023-08-09T14:44:48.873Z,1.50
2023-08-09T14:47:18.130Z,2.00
2023-08-09T14:49:47.086Z,1.58
2023-08-09T14:52:15.024Z,1.70
2023-08-09T14:54:42.946Z,1.60
2023-08-09T14:57:10.845Z,1.50
2023-08-09T14:59:38.795Z,1.67
2023-08-09T15:02:06.665Z,1.60
2023-08-09T15:04:38.077Z,1.52
2023-08-09T15:07:06.186Z,1.50
2023-08-09T15:09:34.704Z,1.67
2023-08-09T15:12:02.680Z,1.60
2023-08-09T15:14:30.632Z,1.42
2023-08-09T15:17:03.427Z,1.48
2023-08-09T15:19:39.238Z,1.67
2023-08-09T15:22:07.182Z,1.52
2023-08-09T15:24:35.140Z,1.63
2023-08-09T15:27:03.455Z,1.60
2023-08-09T15:29:31.541Z,1.60
2023-08-09T15:31:59.768Z,1.50
2023-08-09T15:34:27.669Z,1.40
2023-08-09T15:36:56.891Z,1.40
2023-08-09T15:39:24.770Z,1.50
2023-08-09T15:41:55.454Z,1.50
2023-08-09T15:44:28.327Z,1.45
2023-08-09T15:46:56.388Z,2.13
2023-08-09T15:49:24.384Z,1.60
2023-08-09T15:51:52.262Z,1.85
2023-08-09T15:54:21.465Z,1.63
2023-08-09T15:56:49.342Z,1.50
2023-08-09T15:59:17.324Z,1.60
2023-08-09T16:01:46.411Z,1.48
2023-08-09T16:04:14.411Z,1.65
2023-08-09T16:06:42.481Z,1.48
2023-08-09T16:09:15.634Z,1.70
2023-08-09T16:11:46.863Z,1.80
2023-08-09T16:14:14.936Z,1.50
2023-08-09T16:16:42.917Z,1.70
2023-08-09T16:19:10.830Z,1.80
2023-08-09T16:21:38.783Z,1.77
2023-08-09T16:24:06.993Z,1.67
2023-08-09T16:26:36.991Z,1.60
2023-08-09T16:29:07.096Z,1.60
2023-08-09T16:31:35.620Z,1.73
2023-08-09T16:34:03.568Z,1.70
2023-08-09T16:36:31.513Z,1.80
2023-08-09T16:38:59.486Z,1.88
2023-08-09T16:41:27.348Z,1.80
2023-08-09T16:43:56.094Z,1.65
2023-08-09T16:46:25.534Z,1.80
2023-08-09T16:48:54.157Z,1.70
2023-08-09T16:51:22.190Z,1.70
2023-08-09T16:53:50.242Z,1.63
2023-08-09T16:56:18.147Z,1.83
2023-08-09T16:58:46.044Z,1.67
2023-08-09T17:01:18.066Z,1.85
2023-08-09T17:03:48.025Z,2.88
2023-08-09T17:06:16.503Z,1.90
2023-08-09T17:08:44.740Z,2.00
2023-08-09T17:11:14.228Z,2.42
2023-08-09T17:13:42.156Z,1.60
2023-08-09T17:16:11.616Z,2.10
2023-08-09T17:18:40.139Z,1.70
2023-08-09T17:21:09.829Z,1.80
2023-08-09T17:23:39.831Z,1.88
2023-08-09T17:26:08.249Z,2.30
2023-08-09T17:28:36.421Z,2.30
2023-08-09T17:31:04.367Z,1.80
2023-08-09T17:33:33.400Z,1.98
2023-08-09T17:36:03.876Z,2.00
2023-08-09T17:38:33.484Z,1.60
2023-08-09T17:41:01.385Z,1.70
2023-08-09T17:43:30.586Z,2.00
2023-08-09T17:45:58.541Z,1.75
2023-08-09T17:48:26.768Z,1.80
2023-08-09T17:50:54.692Z,1.85
2023-08-09T17:53:22.479Z,1.80
2023-08-09T17:55:51.705Z,1.90
2023-08-09T17:58:19.817Z,1.73
2023-08-09T18:00:48.186Z,1.67
2023-08-09T18:03:16.090Z,2.00
2023-08-09T18:05:44.160Z,1.92
2023-08-09T18:08:12.138Z,2.30
2023-08-09T18:10:40.871Z,1.95
2023-08-09T18:13:10.143Z,2.13
2023-08-09T18:15:38.501Z,1.95
2023-08-09T18:18:06.755Z,2.38
2023-08-09T18:20:34.781Z,2.15
2023-08-09T18:23:04.027Z,1.95
2023-08-09T18:25:32.069Z,2.17
2023-08-09T18:28:00.167Z,2.20
2023-08-09T18:30:29.546Z,2.08
2023-08-09T18:32:57.603Z,2.20
2023-08-09T18:35:25.529Z,2.20
2023-08-09T18:37:53.914Z,2.20
2023-08-09T18:40:22.622Z,2.28
2023-08-09T18:42:50.531Z,2.17
2023-08-09T18:45:18.566Z,2.13
2023-08-09T18:47:47.835Z,2.10
2023-08-09T18:50:15.782Z,2.13
2023-08-09T18:52:46.007Z,2.30
2023-08-09T18:55:17.518Z,3.60
2023-08-09T18:57:45.625Z,3.35
2023-08-09T19:00:15.915Z,2.90
2023-08-09T19:02:46.093Z,2.30
2023-08-09T19:05:15.817Z,2.47
2023-08-09T19:07:44.296Z,2.65
2023-08-09T19:10:12.341Z,2.22
2023-08-09T19:12:40.319Z,2.53
2023-08-09T19:15:09.545Z,2.35
2023-08-09T19:17:37.527Z,2.80
2023-08-09T19:20:06.228Z,3.28
2023-08-09T19:22:36.006Z,2.50
2023-08-09T19:25:04.759Z,2.90
2023-08-09T19:27:33.083Z,2.50
2023-08-09T19:30:01.578Z,2.30
2023-08-09T19:32:29.574Z,2.58
2023-08-09T19:34:57.442Z,2.40
2023-08-09T19:37:25.571Z,2.40
2023-08-09T19:39:54.935Z,2.70
2023-08-09T19:42:22.976Z,2.60
2023-08-09T19:44:50.832Z,2.22
2023-08-09T19:47:18.662Z,2.45
2023-08-09T19:49:47.205Z,2.50
2023-08-09T19:52:15.255Z,2.20
2023-08-09T19:54:43.169Z,2.30
2023-08-09T19:57:13.315Z,2.30
2023-08-09T19:59:41.197Z,2.40
2023-08-09T20:02:09.213Z,2.47
2023-08-09T20:04:38.897Z,2.40
2023-08-09T20:07:07.328Z,2.42
2023-08-09T20:09:36.089Z,2.30
2023-08-09T20:12:04.802Z,2.20
2023-08-09T20:14:34.256Z,2.10
2023-08-09T20:17:03.004Z,2.03
2023-08-09T20:19:32.781Z,2.25
2023-08-09T20:22:00.655Z,2.30
2023-08-09T20:24:41.083Z,2.40
2023-08-09T20:27:09.843Z,2.08
2023-08-09T20:29:39.911Z,2.30
2023-08-09T20:32:08.577Z,2.00
2023-08-09T20:34:37.182Z,2.25
2023-08-09T20:37:05.933Z,2.33
2023-08-09T20:39:34.181Z,2.25
2023-08-09T20:42:02.507Z,2.50
2023-08-09T20:44:36.126Z,2.47
2023-08-09T20:47:07.172Z,2.78
2023-08-09T20:49:35.715Z,2.97
2023-08-09T20:52:04.948Z,3.28
2023-08-09T20:54:33.048Z,2.72
2023-08-09T20:57:01.116Z,2.58
2023-08-09T20:59:33.954Z,2.50
2023-08-09T21:02:02.278Z,2.42
2023-08-09T21:04:32.037Z,2.22
2023-08-09T21:07:00.112Z,2.13
2023-08-09T21:09:28.651Z,2.13
2023-08-09T21:11:56.566Z,1.90
2023-08-09T21:14:25.640Z,1.73
2023-08-09T21:16:53.710Z,2.20
2023-08-09T21:19:21.575Z,1.90
2023-08-09T21:21:50.869Z,2.30
2023-08-09T21:26:52.007Z,2.20
2023-08-09T21:29:22.230Z,1.85
2023-08-09T21:31:50.618Z,2.20
2023-08-09T21:34:18.810Z,1.90
2023-08-09T21:36:46.826Z,2.20
2023-08-09T21:39:16.094Z,2.28
2023-08-09T21:41:44.049Z,2.58
2023-08-09T21:44:11.988Z,2.00
2023-08-09T21:46:39.925Z,2.20
2023-08-09T21:49:08.165Z,2.50
2023-08-09T21:51:36.076Z,2.58
2023-08-09T21:54:04.129Z,2.35
2023-08-09T21:56:33.432Z,2.25
2023-08-09T21:59:01.394Z,2.30
2023-08-09T22:01:29.781Z,2.30
2023-08-09T22:03:57.604Z,2.50
2023-08-09T22:06:25.542Z,2.28
2023-08-09T22:08:53.447Z,2.55
2023-08-09T22:11:21.612Z,2.50
2023-08-09T22:13:51.127Z,2.53
2023-08-09T22:16:19.115Z,2.60
2023-08-09T22:18:47.139Z,2.70
2023-08-09T22:21:14.999Z,2.72
2023-08-09T22:23:43.359Z,2.70
2023-08-09T22:26:11.251Z,2.50
2023-08-09T22:28:39.142Z,2.60
2023-08-09T22:31:08.645Z,2.90
2023-08-09T22:33:36.595Z,2.78
2023-08-09T22:36:04.658Z,2.55
2023-08-09T22:38:32.537Z,2.90
2023-08-09T22:41:00.364Z,2.85
2023-08-09T22:43:28.553Z,2.70
2023-08-09T22:45:58.596Z,2.90
2023-08-09T22:48:27.887Z,3.40
2023-08-09T22:50:56.068Z,4.57
2023-08-09T22:53:25.688Z,4.30
2023-08-09T22:55:53.984Z,4.00
2023-08-09T22:58:22.795Z,3.53
2023-08-09T23:00:50.757Z,3.35
2023-08-09T23:03:20.565Z,3.15
2023-08-09T23:05:50.509Z,3.00
2023-08-09T23:08:19.472Z,2.97
2023-08-09T23:10:47.310Z,3.17
2023-08-09T23:13:15.175Z,3.20
2023-08-09T23:15:45.609Z,3.08
2023-08-09T23:18:14.530Z,3.30
2023-08-09T23:20:42.648Z,3.25
2023-08-09T23:23:12.562Z,3.20
2023-08-09T23:25:40.422Z,3.20
2023-08-09T23:28:08.319Z,3.13
2023-08-09T23:30:36.427Z,3.13
2023-08-09T23:33:06.283Z,3.30
2023-08-09T23:35:34.593Z,3.30
2023-08-09T23:38:02.475Z,3.10
2023-08-09T23:40:31.769Z,2.72
2023-08-09T23:42:59.893Z,3.10
2023-08-09T23:45:27.934Z,3.00
2023-08-09T23:47:55.987Z,3.05
2023-08-09T23:50:24.373Z,2.83
2023-08-09T23:52:52.312Z,3.00
2023-08-09T23:55:20.244Z,2.88
2023-08-09T23:57:49.570Z,2.90
